createdAt,value
2018-02-24T00:01:09.262Z,19.55
2018-02-24T00:03:35.834Z,19.55
2018-02-24T00:06:02.395Z,19.58
2018-02-24T00:08:28.967Z,19.53
2018-02-24T00:10:55.548Z,19.56
2018-02-24T00:13:22.129Z,19.59
2018-02-24T00:15:48.885Z,19.56
2018-02-24T00:18:15.444Z,19.54
2018-02-24T00:20:42.094Z,19.56
2018-02-24T00:23:08.721Z,19.61
2018-02-24T00:25:35.297Z,19.62
2018-02-24T00:28:01.864Z,19.59
2018-02-24T00:30:28.431Z,19.58
2018-02-24T00:32:55.011Z,19.61
2018-02-24T00:35:21.575Z,19.64
2018-02-24T00:37:48.137Z,19.68
2018-02-24T00:40:14.708Z,19.67
2018-02-24T00:42:41.318Z,19.71
2018-02-24T00:45:07.944Z,19.69
2018-02-24T00:47:34.521Z,19.68
2018-02-24T00:50:01.114Z,19.69
2018-02-24T00:52:27.683Z,19.72
2018-02-24T00:54:54.285Z,19.74
2018-02-24T00:57:20.854Z,19.70
2018-02-24T00:59:47.466Z,19.72
2018-02-24T01:02:14.081Z,19.75
2018-02-24T01:04:40.711Z,19.72
2018-02-24T01:07:07.279Z,19.79
2018-02-24T01:09:33.899Z,19.72
2018-02-24T01:12:00.460Z,19.75
2018-02-24T01:14:27.036Z,19.77
2018-02-24T01:16:53.597Z,19.76
2018-02-24T01:19:20.220Z,19.74
2018-02-24T01:21:46.778Z,19.75
2018-02-24T01:24:13.387Z,19.75
2018-02-24T01:26:39.968Z,19.74
2018-02-24T01:29:06.530Z,19.75
2018-02-24T01:31:33.131Z,19.77
2018-02-24T01:33:59.741Z,19.77
2018-02-24T01:36:26.359Z,19.75
2018-02-24T01:38:52.924Z,19.77
2018-02-24T01:41:19.544Z,19.75
2018-02-24T01:43:46.150Z,19.73
2018-02-24T01:46:12.765Z,19.75
2018-02-24T01:48:39.327Z,19.77
2018-02-24T01:51:05.896Z,19.74
2018-02-24T01:53:32.471Z,19.75
2018-02-24T01:55:59.084Z,19.73
2018-02-24T01:58:25.661Z,19.72
2018-02-24T02:00:52.269Z,19.75
2018-02-24T02:03:18.876Z,19.74
2018-02-24T02:05:45.436Z,19.72
2018-02-24T02:08:12.086Z,19.74
2018-02-24T02:10:38.652Z,19.71
2018-02-24T02:13:05.261Z,19.70
2018-02-24T02:15:31.817Z,19.73
2018-02-24T02:17:58.421Z,19.69
2018-02-24T02:20:25.058Z,19.68
2018-02-24T02:22:51.647Z,19.70
2018-02-24T02:25:18.210Z,19.70
2018-02-24T02:27:44.781Z,19.72
2018-02-24T02:30:11.351Z,19.68
2018-02-24T02:32:38.011Z,19.67
2018-02-24T02:35:04.615Z,19.67
2018-02-24T02:37:31.218Z,19.68
2018-02-24T02:39:57.781Z,19.67
2018-02-24T02:42:24.429Z,19.64
2018-02-24T02:44:50.988Z,19.70
2018-02-24T02:47:17.547Z,19.55
2018-02-24T02:49:44.149Z,19.84
2018-02-24T02:52:10.731Z,20.02
2018-02-24T02:54:37.297Z,20.12
2018-02-24T02:57:03.857Z,19.97
2018-02-24T02:59:30.465Z,19.90
2018-02-24T03:01:57.063Z,19.81
2018-02-24T03:04:23.624Z,19.78
2018-02-24T03:06:50.251Z,19.75
2018-02-24T03:09:16.816Z,19.71
2018-02-24T03:11:43.430Z,19.69
2018-02-24T03:14:10.003Z,19.65
2018-02-24T03:16:36.616Z,19.68
2018-02-24T03:19:03.216Z,19.67
2018-02-24T03:21:29.785Z,19.67
2018-02-24T03:23:56.393Z,19.63
2018-02-24T03:26:22.958Z,19.58
2018-02-24T03:28:49.523Z,19.62
2018-02-24T03:31:16.084Z,19.63
2018-02-24T03:33:42.643Z,19.59
2018-02-24T03:36:09.222Z,19.58
2018-02-24T03:38:35.786Z,19.58
2018-02-24T03:41:02.419Z,19.59
2018-02-24T03:43:28.977Z,19.55
2018-02-24T03:45:55.543Z,19.58
2018-02-24T03:48:22.168Z,19.56
2018-02-24T03:50:48.775Z,19.50
2018-02-24T03:53:15.337Z,19.51
2018-02-24T03:55:41.910Z,19.50
2018-02-24T03:58:08.515Z,19.50
2018-02-24T04:00:35.083Z,19.50
2018-02-24T04:03:01.689Z,19.50
2018-02-24T04:05:28.247Z,19.49
2018-02-24T04:07:54.814Z,19.50
2018-02-24T04:10:21.403Z,19.44
2018-02-24T04:12:47.970Z,19.44
2018-02-24T04:15:14.540Z,19.44
2018-02-24T04:17:41.120Z,19.42
2018-02-24T04:20:07.767Z,19.44
2018-02-24T04:22:34.346Z,19.44
2018-02-24T04:25:00.952Z,19.41
2018-02-24T04:27:27.521Z,19.40
2018-02-24T04:29:54.088Z,19.42
2018-02-24T04:32:20.692Z,19.38
2018-02-24T04:34:47.254Z,19.36
2018-02-24T04:37:13.850Z,19.37
2018-02-24T04:39:40.494Z,19.34
2018-02-24T04:42:07.102Z,19.34
2018-02-24T04:44:33.711Z,19.37
2018-02-24T04:47:00.276Z,19.33
2018-02-24T04:49:26.842Z,19.31
2018-02-24T04:51:53.461Z,19.31
2018-02-24T04:54:20.044Z,19.32
2018-02-24T04:56:46.605Z,19.27
2018-02-24T04:59:13.205Z,19.30
2018-02-24T05:01:39.800Z,19.30
2018-02-24T05:04:06.364Z,19.26
2018-02-24T05:06:32.967Z,19.25
2018-02-24T05:08:59.572Z,19.24
2018-02-24T05:11:26.131Z,19.26
2018-02-24T05:13:52.693Z,19.28
2018-02-24T05:16:19.296Z,19.26
2018-02-24T05:18:45.859Z,19.28
2018-02-24T05:21:12.425Z,19.31
2018-02-24T05:23:38.990Z,19.34
2018-02-24T05:26:05.587Z,19.33
2018-02-24T05:28:32.237Z,19.27
2018-02-24T05:30:58.841Z,19.33
2018-02-24T05:33:25.403Z,19.30
2018-02-24T05:35:52.012Z,19.23
2018-02-24T05:38:18.579Z,19.23
2018-02-24T05:40:45.141Z,19.18
2018-02-24T05:43:11.749Z,19.18
2018-02-24T05:45:38.310Z,19.14
2018-02-24T05:48:04.864Z,19.16
2018-02-24T05:50:31.428Z,19.15
2018-02-24T05:52:57.997Z,19.11
2018-02-24T05:55:24.605Z,19.10
2018-02-24T05:57:51.164Z,19.11
2018-02-24T06:00:17.727Z,19.07
2018-02-24T06:02:44.287Z,19.07
2018-02-24T06:05:10.852Z,19.01
2018-02-24T06:07:37.429Z,19.04
2018-02-24T06:10:04.017Z,18.99
2018-02-24T06:12:30.594Z,18.98
2018-02-24T06:14:57.173Z,18.94
2018-02-24T06:17:23.712Z,18.89
2018-02-24T06:19:50.341Z,18.89
2018-02-24T06:22:16.914Z,18.83
2018-02-24T06:24:43.465Z,18.85
2018-02-24T06:27:10.034Z,18.78
2018-02-24T06:29:36.626Z,18.73
2018-02-24T06:32:03.191Z,18.71
2018-02-24T06:34:29.758Z,18.69
2018-02-24T06:36:56.388Z,18.65
2018-02-24T06:39:23.002Z,18.59
2018-02-24T06:41:49.575Z,18.56
2018-02-24T06:44:16.169Z,18.45
2018-02-24T06:46:42.708Z,18.39
2018-02-24T06:49:09.291Z,18.22
2018-02-24T06:51:35.851Z,18.31
2018-02-24T06:54:02.418Z,18.20
2018-02-24T06:56:29.019Z,18.19
2018-02-24T06:58:55.675Z,18.14
2018-02-24T07:01:22.306Z,18.17
2018-02-24T07:03:48.884Z,18.05
2018-02-24T07:06:15.445Z,18.09
2018-02-24T07:08:42.018Z,17.99
2018-02-24T07:11:08.592Z,18.02
2018-02-24T07:13:35.187Z,17.89
2018-02-24T07:16:01.744Z,18.02
2018-02-24T07:18:28.378Z,18.00
2018-02-24T07:20:54.952Z,18.01
2018-02-24T07:23:21.509Z,18.06
2018-02-24T07:25:48.126Z,17.91
2018-02-24T07:28:14.694Z,17.99
2018-02-24T07:30:41.317Z,17.97
2018-02-24T07:33:07.898Z,17.90
2018-02-24T07:35:34.458Z,17.92
2018-02-24T07:38:01.063Z,18.05
2018-02-24T07:40:27.631Z,18.05
2018-02-24T07:42:54.207Z,18.08
2018-02-24T07:45:20.966Z,18.04
2018-02-24T07:47:47.574Z,18.12
2018-02-24T07:50:14.141Z,18.12
2018-02-24T07:52:40.736Z,18.15
2018-02-24T07:55:07.336Z,18.06
2018-02-24T07:57:33.958Z,18.13
2018-02-24T08:00:00.522Z,18.11
2018-02-24T08:02:27.089Z,18.15
2018-02-24T08:04:53.648Z,18.13
2018-02-24T08:07:20.214Z,18.19
2018-02-24T08:09:46.790Z,18.16
2018-02-24T08:12:13.405Z,18.17
2018-02-24T08:14:39.975Z,18.14
2018-02-24T08:17:06.550Z,18.15
2018-02-24T08:19:33.114Z,18.07
2018-02-24T08:21:59.884Z,18.11
2018-02-24T08:24:26.450Z,18.11
2018-02-24T08:26:53.053Z,18.14
2018-02-24T08:29:19.577Z,18.12
2018-02-24T08:31:46.182Z,18.13
2018-02-24T08:34:12.780Z,18.08
2018-02-24T08:36:39.436Z,18.10
2018-02-24T08:39:06.045Z,18.03
2018-02-24T08:41:32.641Z,18.08
2018-02-24T08:43:59.206Z,18.04
2018-02-24T08:46:25.825Z,18.06
2018-02-24T08:48:52.440Z,18.00
2018-02-24T08:51:19.035Z,18.02
2018-02-24T08:53:45.602Z,17.99
2018-02-24T08:56:12.176Z,18.02
2018-02-24T08:58:38.850Z,17.97
2018-02-24T09:01:05.496Z,18.03
2018-02-24T09:03:32.073Z,17.98
2018-02-24T09:05:58.633Z,17.97
2018-02-24T09:08:25.199Z,17.96
2018-02-24T09:10:51.796Z,17.99
2018-02-24T09:13:18.423Z,17.93
2018-02-24T09:15:45.120Z,18.00
2018-02-24T09:18:11.684Z,17.91
2018-02-24T09:20:38.297Z,17.93
2018-02-24T09:23:04.934Z,17.91
2018-02-24T09:25:31.499Z,17.99
2018-02-24T09:27:58.064Z,17.92
2018-02-24T09:30:24.704Z,17.97
2018-02-24T09:32:51.342Z,17.96
2018-02-24T09:35:17.905Z,17.97
2018-02-24T09:37:44.519Z,17.97
2018-02-24T09:40:11.142Z,17.97
2018-02-24T09:42:37.713Z,18.01
2018-02-24T09:45:04.425Z,17.99
2018-02-24T09:47:31.041Z,18.00
2018-02-24T09:49:57.600Z,18.01
2018-02-24T09:52:24.211Z,18.02
2018-02-24T09:54:50.773Z,18.01
2018-02-24T09:57:17.375Z,18.05
2018-02-24T09:59:43.943Z,18.04
2018-02-24T10:02:10.570Z,18.05
2018-02-24T10:04:37.134Z,18.04
2018-02-24T10:07:03.695Z,18.08
2018-02-24T10:09:30.320Z,18.05
2018-02-24T10:11:56.874Z,18.07
2018-02-24T10:14:23.485Z,18.03
2018-02-24T10:16:50.062Z,18.08
2018-02-24T10:19:16.693Z,18.08
2018-02-24T10:21:43.259Z,18.06
2018-02-24T10:24:09.864Z,18.06
2018-02-24T10:26:36.432Z,18.06
2018-02-24T10:29:02.992Z,18.07
2018-02-24T10:31:29.562Z,18.09
2018-02-24T10:33:56.129Z,18.07
2018-02-24T10:36:22.725Z,18.10
2018-02-24T10:38:49.333Z,18.07
2018-02-24T10:41:15.952Z,18.12
2018-02-24T10:43:42.513Z,18.08
2018-02-24T10:46:09.101Z,18.09
2018-02-24T10:48:35.661Z,18.08
2018-02-24T10:51:02.215Z,18.06
2018-02-24T10:53:28.824Z,17.68
2018-02-24T10:55:55.383Z,18.24
2018-02-24T10:58:21.995Z,18.45
2018-02-24T11:00:48.554Z,18.48
2018-02-24T11:03:15.174Z,18.31
2018-02-24T11:05:41.742Z,18.24
2018-02-24T11:08:08.313Z,18.17
2018-02-24T11:10:34.957Z,18.06
2018-02-24T11:13:01.601Z,18.04
2018-02-24T11:15:28.219Z,18.01
2018-02-24T11:17:54.776Z,18.01
2018-02-24T11:20:21.399Z,18.07
2018-02-24T11:22:47.979Z,18.06
2018-02-24T11:25:14.547Z,18.14
2018-02-24T11:27:41.152Z,18.17
2018-02-24T11:30:07.752Z,18.17
2018-02-24T11:32:34.364Z,18.18
2018-02-24T11:35:00.973Z,18.23
2018-02-24T11:37:27.567Z,18.25
2018-02-24T11:39:54.126Z,18.25
2018-02-24T11:42:20.751Z,18.22
2018-02-24T11:44:47.310Z,18.24
2018-02-24T11:47:13.869Z,18.29
2018-02-24T11:49:40.438Z,18.29
2018-02-24T11:52:07.000Z,18.32
2018-02-24T11:54:33.602Z,18.30
2018-02-24T11:57:00.163Z,18.29
2018-02-24T11:59:26.734Z,18.32
2018-02-24T12:01:53.341Z,18.29
2018-02-24T12:04:19.944Z,18.32
2018-02-24T12:06:46.505Z,18.31
2018-02-24T12:09:13.110Z,18.32
2018-02-24T12:11:39.682Z,18.30
2018-02-24T12:14:06.244Z,18.32
2018-02-24T12:16:32.796Z,18.32
2018-02-24T12:18:59.391Z,18.37
2018-02-24T12:21:25.949Z,18.37
2018-02-24T12:23:52.560Z,18.39
2018-02-24T12:26:19.116Z,18.38
2018-02-24T12:28:45.675Z,18.39
2018-02-24T12:31:12.238Z,18.38
2018-02-24T12:33:38.852Z,18.40
2018-02-24T12:36:05.425Z,18.38
2018-02-24T12:38:32.028Z,18.38
2018-02-24T12:40:58.595Z,18.40
2018-02-24T12:43:25.203Z,18.41
2018-02-24T12:45:51.771Z,18.41
2018-02-24T12:48:18.409Z,18.41
2018-02-24T12:50:45.006Z,18.42
2018-02-24T12:53:11.598Z,18.42
2018-02-24T12:55:38.177Z,18.43
2018-02-24T12:58:04.741Z,18.41
2018-02-24T13:00:31.346Z,18.47
2018-02-24T13:02:57.908Z,18.44
2018-02-24T13:05:24.480Z,18.46
2018-02-24T13:07:51.041Z,18.47
2018-02-24T13:10:17.607Z,18.48
2018-02-24T13:12:44.210Z,18.46
2018-02-24T13:15:10.808Z,18.48
2018-02-24T13:17:37.431Z,18.47
2018-02-24T13:20:04.104Z,18.51
2018-02-24T13:22:30.672Z,18.49
2018-02-24T13:24:57.232Z,18.52
2018-02-24T13:27:23.796Z,18.49
2018-02-24T13:29:50.407Z,18.42
2018-02-24T13:32:16.965Z,18.51
2018-02-24T13:34:43.564Z,18.51
2018-02-24T13:37:10.222Z,18.52
2018-02-24T13:39:36.802Z,18.55
2018-02-24T13:42:03.357Z,18.53
2018-02-24T13:44:29.942Z,18.56
2018-02-24T13:46:56.538Z,18.53
2018-02-24T13:49:23.096Z,18.53
2018-02-24T13:51:49.704Z,18.54
2018-02-24T13:54:16.266Z,18.55
2018-02-24T13:56:42.824Z,18.54
2018-02-24T13:59:09.391Z,18.59
2018-02-24T14:01:35.948Z,18.58
2018-02-24T14:04:02.521Z,18.60
2018-02-24T14:06:29.084Z,18.60
2018-02-24T14:08:55.654Z,18.59
2018-02-24T14:11:22.213Z,18.58
2018-02-24T14:13:48.785Z,18.61
2018-02-24T14:16:15.349Z,18.61
2018-02-24T14:18:41.916Z,18.65
2018-02-24T14:21:08.469Z,18.61
2018-02-24T14:23:35.034Z,18.63
2018-02-24T14:26:01.593Z,18.62
2018-02-24T14:28:28.152Z,18.62
2018-02-24T14:30:54.747Z,18.65
2018-02-24T14:33:21.284Z,18.63
2018-02-24T14:35:47.844Z,18.65
2018-02-24T14:38:14.462Z,18.67
2018-02-24T14:40:41.022Z,18.68
2018-02-24T14:43:07.584Z,18.69
2018-02-24T14:45:34.171Z,18.69
2018-02-24T14:48:00.737Z,18.67
2018-02-24T14:50:27.309Z,18.70
2018-02-24T14:52:53.873Z,18.71
2018-02-24T14:55:20.463Z,18.72
2018-02-24T14:57:47.025Z,18.72
2018-02-24T15:00:13.592Z,18.73
2018-02-24T15:02:40.154Z,18.74
2018-02-24T15:05:06.769Z,18.76
2018-02-24T15:07:33.448Z,18.76
2018-02-24T15:10:00.009Z,18.76
2018-02-24T15:12:26.575Z,18.76
2018-02-24T15:14:53.147Z,18.80
2018-02-24T15:17:19.704Z,18.78
2018-02-24T15:19:46.272Z,18.77
2018-02-24T15:22:12.840Z,18.77
2018-02-24T15:24:39.419Z,18.83
2018-02-24T15:27:06.023Z,18.82
2018-02-24T15:29:32.590Z,18.83
2018-02-24T15:31:59.155Z,18.80
2018-02-24T15:34:25.721Z,18.83
2018-02-24T15:36:52.301Z,18.83
2018-02-24T15:39:18.909Z,18.87
2018-02-24T15:41:45.621Z,18.87
2018-02-24T15:44:12.213Z,18.85
2018-02-24T15:46:38.741Z,18.86
2018-02-24T15:49:05.369Z,18.88
2018-02-24T15:51:31.928Z,18.89
2018-02-24T15:53:58.494Z,18.88
2018-02-24T15:56:25.091Z,18.92
2018-02-24T15:58:51.691Z,18.90
2018-02-24T16:01:18.288Z,18.89
2018-02-24T16:03:44.850Z,18.91
2018-02-24T16:06:11.459Z,18.85
2018-02-24T16:08:41.156Z,18.92
2018-02-24T16:11:07.771Z,18.87
2018-02-24T16:13:34.393Z,18.89
2018-02-24T16:16:00.961Z,18.93
2018-02-24T16:18:27.517Z,18.90
2018-02-24T16:20:54.077Z,18.83
2018-02-24T16:23:20.673Z,18.90
2018-02-24T16:25:47.293Z,18.86
2018-02-24T16:28:13.903Z,18.88
2018-02-24T16:30:40.466Z,18.86
2018-02-24T16:33:07.101Z,18.86
2018-02-24T16:35:33.734Z,18.87
2018-02-24T16:38:00.322Z,18.85
2018-02-24T16:40:26.939Z,18.85
2018-02-24T16:42:53.504Z,18.81
2018-02-24T16:45:20.105Z,18.83
2018-02-24T16:47:46.667Z,18.83
2018-02-24T16:50:13.265Z,18.80
2018-02-24T16:52:39.821Z,18.81
2018-02-24T16:55:06.409Z,18.79
2018-02-24T16:57:32.964Z,18.80
2018-02-24T16:59:59.568Z,18.76
2018-02-24T17:02:26.172Z,18.76
2018-02-24T17:04:52.731Z,18.75
2018-02-24T17:07:19.323Z,18.76
2018-02-24T17:09:45.879Z,18.75
2018-02-24T17:12:12.506Z,18.74
2018-02-24T17:14:39.086Z,18.74
2018-02-24T17:17:05.713Z,18.68
2018-02-24T17:19:32.274Z,18.73
2018-02-24T17:21:58.829Z,18.65
2018-02-24T17:24:25.402Z,18.63
2018-02-24T17:26:51.996Z,18.57
2018-02-24T17:29:18.608Z,18.51
2018-02-24T17:31:45.163Z,18.53
2018-02-24T17:34:11.772Z,18.54
2018-02-24T17:36:38.368Z,18.49
2018-02-24T17:39:04.934Z,18.49
2018-02-24T17:41:31.547Z,18.46
2018-02-24T17:43:58.106Z,18.43
2018-02-24T17:46:24.664Z,18.42
2018-02-24T17:48:51.264Z,18.38
2018-02-24T17:51:17.900Z,18.36
2018-02-24T17:53:44.470Z,18.35
2018-02-24T17:56:11.067Z,18.36
2018-02-24T17:58:37.691Z,18.32
2018-02-24T18:01:04.303Z,18.29
2018-02-24T18:03:30.888Z,18.29
2018-02-24T18:05:57.491Z,18.22
2018-02-24T18:08:24.051Z,18.21
2018-02-24T18:10:50.659Z,18.18
2018-02-24T18:13:17.218Z,18.18
2018-02-24T18:15:43.779Z,18.15
2018-02-24T18:18:10.352Z,18.13
2018-02-24T18:20:36.916Z,18.11
2018-02-24T18:23:03.572Z,18.10
2018-02-24T18:25:30.095Z,18.10
2018-02-24T18:27:56.696Z,18.09
2018-02-24T18:30:23.253Z,18.08
2018-02-24T18:32:49.854Z,18.03
2018-02-24T18:35:16.455Z,18.04
2018-02-24T18:37:43.074Z,18.02
2018-02-24T18:40:09.629Z,18.01
2018-02-24T18:42:36.194Z,17.99
2018-02-24T18:45:02.765Z,17.96
2018-02-24T18:47:29.366Z,17.95
2018-02-24T18:49:55.981Z,17.96
2018-02-24T18:52:22.634Z,17.95
2018-02-24T18:54:49.242Z,17.80
2018-02-24T18:57:15.799Z,17.83
2018-02-24T18:59:42.358Z,18.03
2018-02-24T19:02:08.974Z,18.19
2018-02-24T19:04:35.534Z,18.16
2018-02-24T19:07:02.096Z,18.05
2018-02-24T19:09:28.698Z,18.02
2018-02-24T19:11:55.306Z,17.97
2018-02-24T19:14:21.860Z,17.92
2018-02-24T19:16:48.417Z,17.89
2018-02-24T19:19:14.988Z,17.86
2018-02-24T19:21:41.545Z,17.84
2018-02-24T19:24:08.104Z,17.81
2018-02-24T19:26:34.665Z,17.79
2018-02-24T19:29:01.265Z,17.78
2018-02-24T19:31:27.866Z,17.76
2018-02-24T19:33:54.466Z,17.72
2018-02-24T19:36:21.042Z,17.70
2018-02-24T19:38:47.654Z,17.69
2018-02-24T19:41:14.323Z,17.63
2018-02-24T19:43:40.908Z,17.67
2018-02-24T19:46:07.473Z,17.65
2018-02-24T19:48:34.039Z,17.62
2018-02-24T19:51:00.655Z,17.60
2018-02-24T19:53:27.208Z,17.63
2018-02-24T19:55:53.820Z,17.65
2018-02-24T19:58:20.376Z,17.63
2018-02-24T20:00:46.980Z,17.64
2018-02-24T20:03:13.544Z,17.64
2018-02-24T20:05:40.108Z,17.65
2018-02-24T20:08:06.727Z,17.68
2018-02-24T20:10:33.327Z,17.63
2018-02-24T20:12:59.885Z,17.63
2018-02-24T20:15:26.485Z,17.62
2018-02-24T20:17:53.087Z,17.60
2018-02-24T20:20:19.645Z,17.60
2018-02-24T20:22:46.250Z,17.58
2018-02-24T20:25:12.848Z,17.59
2018-02-24T20:27:39.408Z,17.58
2018-02-24T20:30:05.996Z,17.59
2018-02-24T20:32:32.559Z,17.55
2018-02-24T20:34:59.120Z,17.55
2018-02-24T20:37:25.676Z,17.52
2018-02-24T20:39:52.366Z,17.53
2018-02-24T20:42:18.940Z,17.51
2018-02-24T20:44:45.506Z,17.49
2018-02-24T20:47:12.089Z,17.47
2018-02-24T20:49:38.695Z,17.47
2018-02-24T20:52:05.280Z,17.44
2018-02-24T20:54:31.853Z,17.43
2018-02-24T20:56:58.445Z,17.42
2018-02-24T20:59:25.007Z,17.42
2018-02-24T21:01:51.571Z,17.40
2018-02-24T21:04:18.169Z,17.35
2018-02-24T21:06:44.734Z,17.37
2018-02-24T21:09:11.350Z,17.37
2018-02-24T21:11:37.941Z,17.34
2018-02-24T21:14:04.530Z,17.31
2018-02-24T21:16:31.111Z,17.31
2018-02-24T21:18:57.677Z,17.30
2018-02-24T21:21:24.251Z,17.26
2018-02-24T21:23:50.815Z,17.27
2018-02-24T21:26:17.411Z,17.30
2018-02-24T21:28:43.985Z,17.26
2018-02-24T21:31:10.603Z,17.26
2018-02-24T21:33:37.198Z,17.25
2018-02-24T21:36:03.758Z,17.22
2018-02-24T21:38:30.338Z,17.21
2018-02-24T21:40:56.944Z,17.18
2018-02-24T21:43:23.517Z,17.19
2018-02-24T21:45:50.081Z,17.20
2018-02-24T21:48:16.699Z,17.15
2018-02-24T21:50:43.253Z,17.13
2018-02-24T21:53:09.827Z,17.11
2018-02-24T21:55:36.391Z,17.09
2018-02-24T21:58:02.986Z,17.06
2018-02-24T22:00:29.564Z,17.04
2018-02-24T22:02:56.126Z,16.99
2018-02-24T22:05:22.697Z,16.98
2018-02-24T22:07:49.260Z,16.94
2018-02-24T22:10:15.828Z,16.90
2018-02-24T22:12:42.409Z,16.89
2018-02-24T22:15:08.977Z,16.85
2018-02-24T22:17:35.577Z,16.85
2018-02-24T22:20:02.146Z,16.83
2018-02-24T22:22:28.712Z,16.79
2018-02-24T22:24:55.280Z,16.73
2018-02-24T22:27:21.856Z,16.69
2018-02-24T22:29:48.424Z,16.67
2018-02-24T22:32:14.992Z,16.62
2018-02-24T22:34:41.564Z,16.58
2018-02-24T22:37:08.166Z,16.57
2018-02-24T22:39:34.725Z,16.53
2018-02-24T22:42:01.287Z,16.47
2018-02-24T22:44:27.858Z,16.46
2018-02-24T22:46:54.445Z,16.41
2018-02-24T22:49:21.024Z,16.42
2018-02-24T22:51:47.593Z,16.38
2018-02-24T22:54:14.154Z,16.37
2018-02-24T22:56:40.750Z,16.34
2018-02-24T22:59:07.331Z,16.29
2018-02-24T23:01:33.980Z,16.26
2018-02-24T23:04:00.552Z,16.23
2018-02-24T23:06:27.189Z,16.19
2018-02-24T23:08:53.756Z,16.14
2018-02-24T23:11:20.323Z,16.10
2018-02-24T23:13:46.895Z,16.02
2018-02-24T23:16:13.471Z,16.02
2018-02-24T23:18:40.046Z,15.95
2018-02-24T23:21:06.648Z,15.99
2018-02-24T23:23:33.213Z,15.95
2018-02-24T23:26:08.482Z,15.91
2018-02-24T23:28:35.042Z,15.83
2018-02-24T23:31:01.601Z,15.80
2018-02-24T23:33:28.171Z,15.77
2018-02-24T23:35:54.740Z,15.69
2018-02-24T23:38:21.380Z,15.66
2018-02-24T23:40:47.949Z,15.61
2018-02-24T23:43:14.524Z,15.56
2018-02-24T23:45:41.127Z,15.52
2018-02-24T23:48:07.732Z,15.53
2018-02-24T23:50:34.370Z,15.49
2018-02-24T23:53:00.933Z,15.47
2018-02-24T23:55:27.498Z,15.42
2018-02-24T23:57:54.116Z,15.35
